createdAt,value
2023-03-03T00:01:46.088Z,0.01
2023-03-03T00:04:13.990Z,0.04
2023-03-03T00:06:43.214Z,0.11
2023-03-03T00:09:11.021Z,-0.01
2023-03-03T00:11:38.867Z,0.26
2023-03-03T00:14:19.430Z,0.25
2023-03-03T00:16:49.219Z,0.08
2023-03-03T00:19:19.587Z,0.15
2023-03-03T00:21:51.159Z,0.29
2023-03-03T00:24:22.158Z,0.22
2023-03-03T00:26:51.385Z,0.19
2023-03-03T00:29:30.974Z,0.39
2023-03-03T00:32:14.156Z,0.41
2023-03-03T00:34:42.832Z,0.32
2023-03-03T00:37:22.562Z,0.34
2023-03-03T00:39:50.500Z,0.39
2023-03-03T00:42:19.757Z,0.49
2023-03-03T00:44:48.456Z,0.49
2023-03-03T00:47:31.231Z,0.43
2023-03-03T00:50:21.278Z,0.51
2023-03-03T00:52:59.876Z,0.43
2023-03-03T00:55:27.818Z,0.41
2023-03-03T00:57:56.981Z,0.55
2023-03-03T01:00:32.367Z,0.50
2023-03-03T01:03:04.179Z,0.49
2023-03-03T01:05:32.170Z,0.59
2023-03-03T01:08:01.494Z,0.58
2023-03-03T01:10:32.025Z,0.57
2023-03-03T01:13:01.106Z,0.50
2023-03-03T01:15:29.344Z,0.44
2023-03-03T01:17:57.421Z,0.46
2023-03-03T01:20:25.355Z,0.46
2023-03-03T01:22:53.249Z,0.48
2023-03-03T01:25:22.611Z,0.54
2023-03-03T01:27:50.463Z,0.48
2023-03-03T01:30:19.148Z,0.51
2023-03-03T01:32:47.021Z,0.47
2023-03-03T01:35:15.046Z,0.41
2023-03-03T01:37:42.952Z,0.35
2023-03-03T01:40:15.682Z,0.36
2023-03-03T01:42:45.000Z,0.44
2023-03-03T01:45:19.385Z,0.44
2023-03-03T01:47:55.305Z,0.44
2023-03-03T01:50:32.988Z,0.47
2023-03-03T01:53:01.904Z,0.39
2023-03-03T01:55:32.184Z,0.45
2023-03-03T01:58:04.576Z,0.53
2023-03-03T02:00:33.298Z,0.50
2023-03-03T02:03:01.385Z,0.44
2023-03-03T02:05:29.894Z,0.36
2023-03-03T02:07:57.899Z,0.32
2023-03-03T02:10:26.107Z,0.40
2023-03-03T02:12:55.804Z,0.46
2023-03-03T02:15:27.518Z,0.28
2023-03-03T02:17:56.513Z,0.33
2023-03-03T02:20:36.368Z,0.26
2023-03-03T02:23:08.684Z,0.27
2023-03-03T02:25:43.872Z,0.36
2023-03-03T02:28:13.326Z,0.29
2023-03-03T02:30:41.582Z,0.16
2023-03-03T02:33:10.453Z,0.20
2023-03-03T02:35:41.009Z,0.27
2023-03-03T02:38:16.483Z,0.31
2023-03-03T02:40:48.973Z,0.20
2023-03-03T02:43:19.704Z,0.05
2023-03-03T02:45:47.777Z,0.02
2023-03-03T02:48:15.809Z,-0.01
2023-03-03T02:50:45.482Z,-0.05
2023-03-03T02:53:14.306Z,0.01
2023-03-03T02:55:42.480Z,-0.14
2023-03-03T02:58:10.411Z,-0.17
2023-03-03T03:00:39.861Z,-0.22
2023-03-03T03:03:07.835Z,-0.13
2023-03-03T03:05:39.453Z,-0.27
2023-03-03T03:08:07.629Z,-0.27
2023-03-03T03:10:35.588Z,-0.39
2023-03-03T03:13:03.651Z,-0.46
2023-03-03T03:15:31.647Z,-0.47
2023-03-03T03:18:00.941Z,-0.43
2023-03-03T03:20:29.099Z,-0.51
2023-03-03T03:22:57.077Z,-0.46
2023-03-03T03:25:25.045Z,-0.44
2023-03-03T03:27:53.074Z,-0.50
2023-03-03T03:30:22.584Z,-0.54
2023-03-03T03:32:50.696Z,-0.55
2023-03-03T03:35:20.302Z,-0.49
2023-03-03T03:37:48.261Z,-0.73
2023-03-03T03:40:16.312Z,-0.65
2023-03-03T03:42:44.892Z,-0.54
2023-03-03T03:45:15.267Z,-0.62
2023-03-03T03:47:45.357Z,-0.63
2023-03-03T03:50:15.994Z,-0.70
2023-03-03T03:52:46.280Z,-0.57
2023-03-03T03:55:36.077Z,-0.59
2023-03-03T03:58:04.830Z,-0.63
2023-03-03T04:00:33.334Z,-0.68
2023-03-03T04:03:02.741Z,-0.64
2023-03-03T04:05:31.061Z,-0.60
2023-03-03T04:08:00.260Z,-0.79
2023-03-03T04:10:28.802Z,-0.66
2023-03-03T04:12:56.844Z,-0.60
2023-03-03T04:15:25.561Z,-0.83
2023-03-03T04:17:53.476Z,-0.81
2023-03-03T04:20:21.796Z,-0.82
2023-03-03T04:22:49.992Z,-0.80
2023-03-03T04:25:19.566Z,-0.77
2023-03-03T04:27:48.401Z,-0.78
2023-03-03T04:30:18.970Z,-0.82
2023-03-03T04:32:49.817Z,-0.81
2023-03-03T04:35:21.584Z,-0.76
2023-03-03T04:37:49.589Z,-0.76
2023-03-03T04:40:19.849Z,-0.76
2023-03-03T04:42:50.276Z,-0.76
2023-03-03T04:45:18.721Z,-0.83
2023-03-03T04:47:47.547Z,-0.77
2023-03-03T04:50:16.510Z,-0.81
2023-03-03T04:52:44.500Z,-0.89
2023-03-03T04:55:14.198Z,-0.90
2023-03-03T04:57:43.611Z,-0.86
2023-03-03T05:00:13.480Z,-0.82
2023-03-03T05:02:41.610Z,-0.89
2023-03-03T05:05:11.290Z,-0.91
2023-03-03T05:07:39.191Z,-0.91
2023-03-03T05:10:08.197Z,-0.91
2023-03-03T05:12:36.075Z,-0.93
2023-03-03T05:15:06.084Z,-0.94
2023-03-03T05:17:33.987Z,-0.91
2023-03-03T05:20:02.007Z,-0.97
2023-03-03T05:22:30.070Z,-0.97
2023-03-03T05:24:58.056Z,-1.00
2023-03-03T05:27:26.017Z,-0.91
2023-03-03T05:29:53.884Z,-0.93
2023-03-03T05:32:23.364Z,-1.00
2023-03-03T05:34:52.559Z,-1.00
2023-03-03T05:37:20.454Z,-0.99
2023-03-03T05:39:48.309Z,-1.02
2023-03-03T05:42:16.180Z,-1.05
2023-03-03T05:44:44.095Z,-1.07
2023-03-03T05:47:12.101Z,-1.07
2023-03-03T05:49:41.409Z,-1.04
2023-03-03T05:52:09.537Z,-1.07
2023-03-03T05:54:37.458Z,-1.02
2023-03-03T05:57:05.485Z,-1.07
2023-03-03T05:59:33.432Z,-1.11
2023-03-03T06:02:01.283Z,-1.13
2023-03-03T06:04:29.186Z,-1.13
2023-03-03T06:06:58.449Z,-1.12
2023-03-03T06:09:27.111Z,-1.06
2023-03-03T06:11:55.056Z,-1.06
2023-03-03T06:14:26.994Z,-1.02
2023-03-03T06:16:55.168Z,-0.98
2023-03-03T06:19:23.045Z,-0.96
2023-03-03T06:21:50.925Z,-0.92
2023-03-03T06:24:20.200Z,-0.88
2023-03-03T06:26:48.344Z,-0.88
2023-03-03T06:29:16.512Z,-0.86
2023-03-03T06:31:44.791Z,-0.78
2023-03-03T06:34:12.709Z,-0.68
2023-03-03T06:36:40.799Z,-0.63
2023-03-03T06:39:08.688Z,-0.57
2023-03-03T06:41:38.149Z,-0.46
2023-03-03T06:44:06.047Z,-0.39
2023-03-03T06:46:33.898Z,-0.31
2023-03-03T06:49:01.811Z,-0.26
2023-03-03T06:51:33.616Z,-0.22
2023-03-03T06:54:04.030Z,-0.12
2023-03-03T06:56:34.042Z,-0.11
2023-03-03T06:59:04.045Z,-0.11
2023-03-03T07:01:36.212Z,-0.08
2023-03-03T07:04:12.213Z,-0.01
2023-03-03T07:06:40.127Z,0.03
2023-03-03T07:09:10.334Z,0.16
2023-03-03T07:11:40.990Z,0.22
2023-03-03T07:14:17.351Z,0.32
2023-03-03T07:16:45.329Z,0.37
2023-03-03T07:19:22.527Z,0.48
2023-03-03T07:21:52.202Z,0.54
2023-03-03T07:24:27.859Z,0.59
2023-03-03T07:26:59.317Z,0.65
2023-03-03T07:29:31.207Z,0.79
2023-03-03T07:31:59.974Z,0.90
2023-03-03T07:34:32.098Z,0.95
2023-03-03T07:37:02.583Z,1.00
2023-03-03T07:39:33.213Z,1.16
2023-03-03T07:42:10.715Z,1.29
2023-03-03T07:44:40.556Z,1.14
2023-03-03T07:47:20.315Z,1.34
2023-03-03T07:49:49.870Z,1.61
2023-03-03T07:52:25.972Z,1.51
2023-03-03T07:54:54.494Z,1.68
2023-03-03T07:57:25.302Z,1.78
2023-03-03T07:59:56.100Z,1.88
2023-03-03T08:02:48.658Z,1.73
2023-03-03T08:05:28.718Z,1.81
2023-03-03T08:07:59.988Z,1.82
2023-03-03T08:10:36.326Z,1.80
2023-03-03T08:13:11.108Z,1.89
2023-03-03T08:15:40.505Z,1.97
2023-03-03T08:18:19.456Z,1.93
2023-03-03T08:20:52.541Z,2.31
2023-03-03T08:23:20.731Z,2.48
2023-03-03T08:25:49.825Z,2.57
2023-03-03T08:28:18.039Z,2.59
2023-03-03T08:30:48.210Z,2.69
2023-03-03T08:33:17.085Z,2.73
2023-03-03T08:35:45.226Z,2.77
2023-03-03T08:38:14.444Z,2.90
2023-03-03T08:40:42.629Z,2.93
2023-03-03T08:43:10.725Z,3.03
2023-03-03T08:45:38.587Z,3.18
2023-03-03T08:48:08.122Z,3.50
2023-03-03T08:50:36.087Z,3.58
2023-03-03T08:53:04.108Z,3.68
2023-03-03T08:55:32.522Z,3.65
2023-03-03T08:58:00.352Z,3.70
2023-03-03T09:00:28.225Z,3.75
2023-03-03T09:02:56.379Z,3.76
2023-03-03T09:05:26.919Z,3.84
2023-03-03T09:07:55.944Z,4.15
2023-03-03T09:10:29.405Z,4.16
2023-03-03T09:12:58.702Z,3.95
2023-03-03T09:15:28.630Z,3.93
2023-03-03T09:17:59.509Z,4.10
2023-03-03T09:20:39.311Z,4.33
2023-03-03T09:23:35.732Z,4.30
2023-03-03T09:26:29.747Z,4.09
2023-03-03T09:29:02.562Z,4.53
2023-03-03T09:31:38.046Z,4.50
2023-03-03T09:34:16.215Z,4.43
2023-03-03T09:36:45.579Z,4.54
2023-03-03T09:39:18.937Z,4.79
2023-03-03T09:42:16.756Z,4.88
2023-03-03T09:45:17.981Z,5.41
2023-03-03T09:47:57.244Z,5.26
2023-03-03T09:50:36.730Z,5.32
2023-03-03T09:53:19.331Z,5.17
2023-03-03T09:55:52.163Z,4.96
2023-03-03T09:58:28.882Z,4.94
2023-03-03T10:01:03.431Z,4.87
2023-03-03T10:04:00.615Z,5.00
2023-03-03T10:06:30.312Z,5.53
2023-03-03T10:09:16.449Z,5.93
2023-03-03T10:11:50.701Z,5.49
2023-03-03T10:14:30.635Z,5.59
2023-03-03T10:17:07.444Z,5.31
2023-03-03T10:19:40.674Z,5.67
2023-03-03T10:22:19.681Z,5.65
2023-03-03T10:24:59.222Z,6.36
2023-03-03T10:27:38.462Z,6.93
2023-03-03T10:30:15.038Z,6.67
2023-03-03T10:32:51.832Z,6.24
2023-03-03T10:35:42.719Z,5.73
2023-03-03T10:38:19.440Z,5.60
2023-03-03T10:40:52.259Z,5.40
2023-03-03T10:43:32.848Z,5.27
2023-03-03T10:46:22.834Z,5.11
2023-03-03T10:49:04.474Z,5.42
2023-03-03T10:51:36.193Z,5.71
2023-03-03T10:54:15.179Z,5.72
2023-03-03T10:56:53.320Z,5.35
2023-03-03T10:59:36.752Z,5.27
2023-03-03T11:02:10.127Z,5.17
2023-03-03T11:05:07.275Z,4.91
2023-03-03T11:07:41.628Z,5.24
2023-03-03T11:10:28.519Z,4.99
2023-03-03T11:13:11.195Z,5.08
2023-03-03T11:15:52.000Z,4.84
2023-03-03T11:18:27.002Z,4.94
2023-03-03T11:20:59.886Z,4.98
2023-03-03T11:23:41.387Z,4.85
2023-03-03T11:26:11.043Z,4.89
2023-03-03T11:28:56.380Z,4.79
2023-03-03T11:31:31.816Z,4.99
2023-03-03T11:34:02.800Z,4.81
2023-03-03T11:36:35.234Z,5.03
2023-03-03T11:39:05.565Z,4.95
2023-03-03T11:41:37.678Z,5.03
2023-03-03T11:44:13.217Z,4.84
2023-03-03T11:46:45.012Z,4.80
2023-03-03T11:49:17.255Z,4.54
2023-03-03T11:51:52.107Z,4.26
2023-03-03T11:54:25.235Z,4.11
2023-03-03T11:56:57.133Z,3.96
2023-03-03T11:59:43.647Z,3.80
2023-03-03T12:02:24.682Z,3.71
2023-03-03T12:04:55.127Z,3.63
2023-03-03T12:07:33.722Z,3.50
2023-03-03T12:10:14.479Z,3.56
2023-03-03T12:12:44.607Z,3.41
2023-03-03T12:15:21.123Z,3.36
2023-03-03T12:17:59.603Z,3.35
2023-03-03T12:20:32.729Z,3.26
2023-03-03T12:23:09.210Z,3.25
2023-03-03T12:25:39.639Z,3.12
2023-03-03T12:28:11.886Z,3.25
2023-03-03T12:31:08.909Z,3.05
2023-03-03T12:33:54.107Z,3.04
2023-03-03T12:36:38.387Z,3.15
2023-03-03T12:39:10.108Z,3.10
2023-03-03T12:41:43.031Z,2.99
2023-03-03T12:44:17.813Z,3.17
2023-03-03T12:46:54.573Z,3.20
2023-03-03T12:49:24.757Z,3.39
2023-03-03T12:52:06.499Z,3.42
2023-03-03T12:54:50.124Z,3.33
2023-03-03T12:57:24.770Z,3.21
2023-03-03T13:00:05.395Z,3.27
2023-03-03T13:02:56.661Z,3.37
2023-03-03T13:05:28.820Z,3.38
2023-03-03T13:08:02.857Z,3.55
2023-03-03T13:10:36.823Z,3.59
2023-03-03T13:13:09.178Z,3.72
2023-03-03T13:15:44.239Z,3.66
2023-03-03T13:18:28.796Z,3.69
2023-03-03T13:21:00.424Z,3.86
2023-03-03T13:23:41.493Z,3.93
2023-03-03T13:26:12.041Z,4.15
2023-03-03T13:28:42.231Z,3.96
2023-03-03T13:31:13.560Z,4.09
2023-03-03T13:33:49.016Z,4.20
2023-03-03T13:36:18.278Z,4.16
2023-03-03T13:38:49.719Z,4.20
2023-03-03T13:41:23.550Z,4.47
2023-03-03T13:43:54.601Z,4.60
2023-03-03T13:46:33.592Z,4.76
2023-03-03T13:49:19.161Z,4.73
2023-03-03T13:51:53.369Z,4.86
2023-03-03T13:54:37.587Z,4.77
2023-03-03T13:57:27.191Z,4.80
2023-03-03T14:00:00.982Z,4.72
2023-03-03T14:02:51.567Z,4.60
2023-03-03T14:05:25.650Z,4.81
2023-03-03T14:07:58.806Z,4.70
2023-03-03T14:10:30.394Z,4.81
2023-03-03T14:13:09.225Z,4.88
2023-03-03T14:15:47.586Z,4.71
2023-03-03T14:18:23.586Z,4.86
2023-03-03T14:20:54.086Z,4.73
2023-03-03T14:23:25.086Z,4.80
2023-03-03T14:25:56.127Z,4.70
2023-03-03T14:28:25.508Z,4.83
2023-03-03T14:30:56.069Z,4.86
2023-03-03T14:33:29.583Z,5.03
2023-03-03T14:36:18.066Z,5.02
2023-03-03T14:38:51.716Z,5.11
2023-03-03T14:41:37.087Z,4.91
2023-03-03T14:44:27.071Z,5.12
2023-03-03T14:47:14.084Z,4.93
2023-03-03T14:49:42.136Z,4.96
2023-03-03T14:52:26.682Z,5.20
2023-03-03T14:54:56.149Z,5.06
2023-03-03T14:57:41.716Z,4.93
2023-03-03T15:00:29.584Z,5.04
2023-03-03T15:03:06.669Z,5.04
2023-03-03T15:05:34.794Z,4.95
2023-03-03T15:08:11.665Z,5.01
2023-03-03T15:10:41.139Z,5.08
2023-03-03T15:13:31.972Z,5.02
2023-03-03T15:16:11.853Z,5.08
2023-03-03T15:19:00.393Z,5.12
2023-03-03T15:21:32.259Z,5.19
2023-03-03T15:24:04.801Z,5.27
2023-03-03T15:26:46.955Z,5.28
2023-03-03T15:29:18.799Z,5.21
2023-03-03T15:31:53.778Z,5.33
2023-03-03T15:34:35.193Z,5.26
2023-03-03T15:37:12.885Z,5.12
2023-03-03T15:39:47.341Z,5.24
2023-03-03T15:42:16.818Z,5.19
2023-03-03T15:44:52.516Z,5.11
2023-03-03T15:47:30.087Z,5.13
2023-03-03T15:50:36.656Z,5.21
2023-03-03T15:53:17.905Z,5.29
2023-03-03T15:55:56.756Z,5.07
2023-03-03T15:58:48.417Z,5.06
2023-03-03T16:01:22.574Z,4.94
2023-03-03T16:03:56.015Z,5.04
2023-03-03T16:06:25.596Z,5.22
2023-03-03T16:08:58.088Z,5.13
2023-03-03T16:11:29.702Z,5.10
2023-03-03T16:14:06.942Z,5.18
2023-03-03T16:16:42.369Z,5.14
2023-03-03T16:19:22.179Z,5.28
2023-03-03T16:22:06.315Z,5.13
2023-03-03T16:24:41.940Z,5.18
2023-03-03T16:27:18.391Z,5.08
2023-03-03T16:29:55.728Z,4.94
2023-03-03T16:32:30.325Z,4.97
2023-03-03T16:34:59.672Z,4.93
2023-03-03T16:37:32.007Z,4.83
2023-03-03T16:40:05.075Z,4.75
2023-03-03T16:42:34.366Z,4.66
2023-03-03T16:45:14.892Z,4.52
2023-03-03T16:48:04.588Z,4.46
2023-03-03T16:50:39.479Z,4.39
2023-03-03T16:53:16.012Z,4.40
2023-03-03T16:55:50.057Z,4.28
2023-03-03T16:58:31.026Z,4.17
2023-03-03T17:01:03.427Z,4.20
2023-03-03T17:03:48.569Z,4.25
2023-03-03T17:06:21.239Z,4.12
2023-03-03T17:09:33.299Z,4.25
2023-03-03T17:12:10.174Z,4.15
2023-03-03T17:14:49.503Z,4.10
2023-03-03T17:17:25.640Z,4.13
2023-03-03T17:20:02.182Z,4.17
2023-03-03T17:22:35.420Z,4.13
2023-03-03T17:25:07.064Z,4.29
2023-03-03T17:27:48.027Z,4.22
2023-03-03T17:30:22.570Z,4.20
2023-03-03T17:33:08.846Z,4.12
2023-03-03T17:35:58.140Z,4.08
2023-03-03T17:38:34.880Z,4.07
2023-03-03T17:41:05.879Z,4.11
2023-03-03T17:43:40.719Z,4.11
2023-03-03T17:46:16.133Z,4.02
2023-03-03T17:49:25.711Z,4.04
2023-03-03T17:52:07.441Z,4.06
2023-03-03T17:55:04.647Z,4.08
2023-03-03T17:57:43.332Z,4.06
2023-03-03T18:00:23.610Z,4.10
2023-03-03T18:03:23.683Z,4.10
2023-03-03T18:06:03.212Z,4.14
2023-03-03T18:08:44.052Z,4.09
2023-03-03T18:11:24.886Z,4.10
2023-03-03T18:14:08.271Z,4.11
2023-03-03T18:16:50.371Z,4.02
2023-03-03T18:19:49.126Z,3.95
2023-03-03T18:22:21.627Z,3.95
2023-03-03T18:24:59.899Z,3.94
2023-03-03T18:27:39.513Z,3.95
2023-03-03T18:30:49.321Z,3.95
2023-03-03T18:33:17.952Z,3.80
2023-03-03T18:35:49.456Z,3.84
2023-03-03T18:38:34.883Z,3.78
2023-03-03T18:41:04.026Z,3.78
2023-03-03T18:43:49.437Z,3.78
2023-03-03T18:46:50.487Z,3.65
2023-03-03T18:49:19.211Z,3.70
2023-03-03T18:52:16.925Z,3.74
2023-03-03T18:55:04.953Z,3.73
2023-03-03T18:57:32.939Z,3.75
2023-03-03T19:00:15.706Z,3.73
2023-03-03T19:02:53.180Z,3.77
2023-03-03T19:05:24.479Z,3.74
2023-03-03T19:07:58.285Z,3.77
2023-03-03T19:11:01.659Z,3.80
2023-03-03T19:13:48.323Z,3.79
2023-03-03T19:16:31.621Z,3.76
2023-03-03T19:19:01.608Z,3.67
2023-03-03T19:21:32.028Z,3.61
2023-03-03T19:24:01.495Z,3.67
2023-03-03T19:27:07.950Z,3.70
2023-03-03T19:30:14.619Z,3.66
2023-03-03T19:33:10.060Z,3.71
2023-03-03T19:35:44.137Z,3.67
2023-03-03T19:38:27.297Z,3.71
2023-03-03T19:41:00.924Z,3.74
2023-03-03T19:43:40.536Z,3.78
2023-03-03T19:46:23.454Z,3.73
2023-03-03T19:48:55.655Z,3.73
2023-03-03T19:51:29.213Z,3.73
2023-03-03T19:54:02.193Z,3.71
2023-03-03T19:56:38.492Z,3.76
2023-03-03T19:59:20.454Z,3.79
2023-03-03T20:01:59.950Z,3.78
2023-03-03T20:04:38.139Z,3.83
2023-03-03T20:07:15.905Z,3.78
2023-03-03T20:09:51.217Z,3.77
2023-03-03T20:12:30.504Z,3.72
2023-03-03T20:15:08.922Z,3.80
2023-03-03T20:17:45.990Z,3.74
2023-03-03T20:20:34.162Z,3.77
2023-03-03T20:23:06.125Z,3.76
2023-03-03T20:25:38.189Z,3.72
2023-03-03T20:28:14.173Z,3.70
2023-03-03T20:30:53.495Z,3.60
2023-03-03T20:33:33.881Z,3.60
2023-03-03T20:36:08.940Z,3.58
2023-03-03T20:38:43.064Z,3.56
2023-03-03T20:41:22.054Z,3.54
2023-03-03T20:43:59.462Z,3.53
2023-03-03T20:46:31.538Z,3.62
2023-03-03T20:49:12.377Z,3.58
2023-03-03T20:51:44.731Z,3.62
2023-03-03T20:54:20.282Z,3.59
2023-03-03T20:56:52.092Z,3.60
2023-03-03T20:59:26.350Z,3.63
2023-03-03T21:01:59.459Z,3.55
2023-03-03T21:04:30.314Z,3.47
2023-03-03T21:06:59.043Z,3.46
2023-03-03T21:09:30.178Z,3.53
2023-03-03T21:11:58.446Z,3.53
2023-03-03T21:14:27.471Z,3.64
2023-03-03T21:16:57.317Z,3.70
2023-03-03T21:19:28.849Z,3.70
2023-03-03T21:21:59.316Z,3.71
2023-03-03T21:24:49.992Z,3.86
2023-03-03T21:27:31.050Z,3.71
2023-03-03T21:30:10.927Z,3.75
2023-03-03T21:32:41.700Z,3.72
2023-03-03T21:35:12.790Z,3.69
2023-03-03T21:37:46.695Z,3.72
2023-03-03T21:40:16.154Z,3.64
2023-03-03T21:42:44.325Z,3.63
2023-03-03T21:45:13.968Z,3.70
2023-03-03T21:47:42.095Z,3.64
2023-03-03T21:50:12.489Z,3.71
2023-03-03T21:52:40.429Z,3.74
2023-03-03T21:55:09.685Z,3.75
2023-03-03T21:57:37.589Z,3.74
2023-03-03T22:00:07.175Z,3.72
2023-03-03T22:02:35.820Z,3.67
2023-03-03T22:05:04.180Z,3.73
2023-03-03T22:07:33.487Z,3.70
2023-03-03T22:10:01.357Z,3.72
2023-03-03T22:12:29.214Z,3.75
2023-03-03T22:14:57.116Z,3.72
2023-03-03T22:17:25.661Z,3.76
2023-03-03T22:19:55.641Z,3.68
2023-03-03T22:22:24.271Z,3.67
2023-03-03T22:24:53.866Z,3.73
2023-03-03T22:27:21.780Z,3.77
2023-03-03T22:29:49.636Z,3.77
2023-03-03T22:32:17.492Z,3.78
2023-03-03T22:34:45.612Z,3.79
2023-03-03T22:37:13.534Z,3.82
2023-03-03T22:39:41.425Z,3.78
2023-03-03T22:42:11.168Z,3.81
2023-03-03T22:44:40.224Z,3.82
2023-03-03T22:47:08.088Z,3.88
2023-03-03T22:49:35.956Z,3.84
2023-03-03T22:52:03.842Z,3.89
2023-03-03T22:54:31.739Z,3.88
2023-03-03T22:56:59.670Z,3.93
2023-03-03T22:59:28.939Z,3.89
2023-03-03T23:01:57.080Z,3.93
2023-03-03T23:04:25.040Z,3.92
2023-03-03T23:06:53.028Z,3.94
2023-03-03T23:09:20.878Z,3.91
2023-03-03T23:11:48.738Z,3.99
2023-03-03T23:14:16.608Z,3.91
2023-03-03T23:16:47.359Z,3.96
2023-03-03T23:19:15.817Z,3.95
2023-03-03T23:21:43.686Z,3.89
2023-03-03T23:24:11.987Z,3.90
2023-03-03T23:26:39.971Z,3.92
2023-03-03T23:29:08.217Z,3.77
2023-03-03T23:31:36.214Z,3.79
2023-03-03T23:34:05.483Z,3.87
2023-03-03T23:36:33.394Z,3.76
2023-03-03T23:39:01.302Z,3.82
2023-03-03T23:41:29.227Z,3.77
2023-03-03T23:43:57.072Z,3.85
2023-03-03T23:46:25.226Z,3.82
2023-03-03T23:48:53.129Z,3.80
2023-03-03T23:51:22.325Z,3.84
2023-03-03T23:53:50.361Z,3.78
2023-03-03T23:56:18.343Z,3.83
2023-03-03T23:58:46.196Z,3.81
